Time;durP1;ratioP1;P1;durP2;ratioP2;P2;SDS_P1;SDS_P2;PMS_P1;PMS_P2;Temp;Humidity;BMP_temperature;BMP_pressure;BME280_temperature;BME280_humidity;BME280_pressure;Samples;Min_cycle;Max_cycle;Signal;HPM_P1;HPM_P2
2024/04/18 00:02:15;;;;;;;2.47;2.00;;;;;;;3.75;100.00;99283.78;5415471;26;20332;-54
2024/04/18 00:04:40;;;;;;;3.80;1.80;;;;;;;3.82;100.00;99287.31;5401715;26;20243;-56
2024/04/18 00:07:06;;;;;;;2.47;1.93;;;;;;;3.87;100.00;99276.06;5396825;26;20240;-55
2024/04/18 00:09:31;;;;;;;2.43;1.97;;;;;;;3.80;100.00;99280.53;5336180;26;20751;-55
2024/04/18 00:11:56;;;;;;;2.43;1.63;;;;;;;3.82;100.00;99284.66;5365620;26;20248;-54
2024/04/18 00:14:22;;;;;;;3.00;1.93;;;;;;;3.83;100.00;99277.47;5393851;26;20286;-54
2024/04/18 00:16:47;;;;;;;1.67;1.47;;;;;;;3.86;100.00;99271.78;5400066;26;20274;-54
2024/04/18 00:19:14;;;;;;;3.67;1.47;;;;;;;3.83;100.00;99272.97;5398269;26;20232;-51
2024/04/18 00:21:39;;;;;;;1.90;1.63;;;;;;;3.81;100.00;99284.84;5385403;26;20296;-52
2024/04/18 00:24:04;;;;;;;3.60;2.67;;;;;;;3.52;100.00;99271.53;5405785;26;20323;-53
2024/04/18 00:26:30;;;;;;;2.93;2.57;;;;;;;3.30;100.00;99278.75;5420021;26;20262;-51
2024/04/18 00:28:55;;;;;;;3.50;2.30;;;;;;;2.99;100.00;99271.91;5369870;26;20287;-51
2024/04/18 00:31:20;;;;;;;2.90;2.57;;;;;;;3.04;100.00;99271.34;5385832;26;20346;-52
2024/04/18 00:33:47;;;;;;;4.03;2.67;;;;;;;3.00;100.00;99278.88;5400227;26;20597;-55
2024/04/18 00:36:12;;;;;;;3.17;2.60;;;;;;;2.99;100.00;99277.22;5370135;26;20239;-54
2024/04/18 00:38:37;;;;;;;2.90;2.60;;;;;;;2.96;100.00;99277.59;5387107;26;20651;-56
2024/04/18 00:41:03;;;;;;;3.37;2.40;;;;;;;2.89;100.00;99272.25;5398570;26;20735;-53
2024/04/18 00:43:28;;;;;;;3.73;2.63;;;;;;;2.90;100.00;99270.41;5415298;26;20240;-54
2024/04/18 00:45:57;;;;;;;2.50;2.30;;;;;;;2.89;100.00;99276.75;5365570;26;20344;-52
2024/04/18 00:48:25;;;;;;;2.77;2.10;;;;;;;2.88;100.00;99275.09;5381377;26;20236;-54
2024/04/18 00:50:54;;;;;;;3.40;2.50;;;;;;;2.97;100.00;99273.94;5409491;26;20862;-55
2024/04/18 00:53:21;;;;;;;2.53;2.10;;;;;;;2.89;100.00;99271.44;5396145;26;20275;-52
2024/04/18 00:55:48;;;;;;;3.33;2.23;;;;;;;2.84;100.00;99271.16;5394777;26;20255;-54
2024/04/18 00:58:13;;;;;;;3.57;1.90;;;;;;;2.78;100.00;99278.03;5380769;26;20244;-53
2024/04/18 01:00:40;;;;;;;2.87;2.00;;;;;;;2.73;100.00;99275.97;5395119;26;20719;-56
2024/04/18 01:03:06;;;;;;;3.30;1.80;;;;;;;2.70;100.00;99279.00;5394559;26;20581;-51
2024/04/18 01:05:32;;;;;;;3.63;3.27;;;;;;;2.72;100.00;99271.66;5393046;26;20282;-51
2024/04/18 01:07:58;;;;;;;4.57;3.73;;;;;;;2.60;100.00;99274.00;5369200;26;20244;-54
2024/04/18 01:10:23;;;;;;;12.30;3.60;;;;;;;2.60;100.00;99281.97;5359764;26;20735;-55
2024/04/18 01:12:59;;;;;;;16.83;4.50;;;;;;;2.51;100.00;99277.78;5396734;26;20282;-55
2024/04/18 01:15:26;;;;;;;15.87;5.00;;;;;;;2.52;100.00;99282.88;5415296;26;20738;-52
2024/04/18 01:17:51;;;;;;;23.53;5.03;;;;;;;2.52;100.00;99280.22;5386232;26;20232;-54
2024/04/18 01:20:20;;;;;;;22.60;7.00;;;;;;;2.48;100.00;99276.28;5415340;26;20726;-53
2024/04/18 01:22:45;;;;;;;25.07;5.57;;;;;;;2.54;100.00;99280.06;5400460;26;20284;-54
2024/04/18 01:25:10;;;;;;;47.73;6.73;;;;;;;2.50;100.00;99284.09;5380679;26;20286;-54
2024/04/18 01:27:36;;;;;;;27.37;6.77;;;;;;;2.51;100.00;99273.28;5393868;26;20242;-53
2024/04/18 01:30:01;;;;;;;25.57;7.60;;;;;;;2.63;100.00;99283.41;5381043;26;20240;-53
2024/04/18 01:32:29;;;;;;;27.90;6.83;;;;;;;2.64;100.00;99280.59;5406888;26;20239;-51
2024/04/18 01:34:54;;;;;;;31.80;7.17;;;;;;;2.60;100.00;99286.44;5369771;26;20285;-54
2024/04/18 01:37:19;;;;;;;35.53;7.67;;;;;;;2.60;100.00;99289.09;5400482;26;20235;-53
2024/04/18 01:39:45;;;;;;;41.47;8.07;;;;;;;2.61;100.00;99290.75;5398871;26;20338;-55
2024/04/18 01:42:11;;;;;;;16.23;6.37;;;;;;;2.69;100.00;99298.59;5408520;26;20236;-55
2024/04/18 01:44:36;;;;;;;22.50;7.70;;;;;;;2.65;100.00;99292.81;5364576;26;20255;-55
2024/04/18 01:47:01;;;;;;;11.67;6.43;;;;;;;2.67;100.00;99295.31;5412444;26;21911;-51
2024/04/18 01:49:26;;;;;;;27.93;6.57;;;;;;;2.61;100.00;99293.41;5415733;26;20235;-53
2024/04/18 01:51:52;;;;;;;18.10;7.67;;;;;;;2.50;100.00;99295.53;5400447;26;20282;-51
2024/04/18 01:54:17;;;;;;;13.13;6.30;;;;;;;2.46;100.00;99285.47;5401261;26;20239;-53
2024/04/18 01:56:42;;;;;;;9.73;6.17;;;;;;;2.34;100.00;99293.91;5382320;26;20239;-55
2024/04/18 01:59:08;;;;;;;9.57;6.50;;;;;;;2.34;100.00;99299.22;5409172;26;20304;-52
2024/04/18 02:01:33;;;;;;;9.67;5.90;;;;;;;2.26;100.00;99298.50;5392205;26;20273;-55
2024/04/18 02:03:58;;;;;;;7.17;4.87;;;;;;;2.34;100.00;99303.72;5394847;26;20243;-53
2024/04/18 02:06:24;;;;;;;10.30;5.87;;;;;;;2.30;100.00;99311.22;5393988;26;20248;-54
2024/04/18 02:08:49;;;;;;;9.67;5.20;;;;;;;2.21;100.00;99305.19;5384747;26;20282;-51
2024/04/18 02:11:14;;;;;;;7.53;5.57;;;;;;;2.22;100.00;99306.84;5392814;26;20282;-52
2024/04/18 02:13:39;;;;;;;9.03;5.60;;;;;;;2.17;100.00;99319.84;5396031;26;20244;-54
2024/04/18 02:16:05;;;;;;;10.33;5.67;;;;;;;2.30;100.00;99315.72;5398543;26;20785;-53
2024/04/18 02:18:30;;;;;;;8.70;5.77;;;;;;;2.36;100.00;99318.44;5400312;26;20236;-52
2024/04/18 02:20:55;;;;;;;8.03;5.30;;;;;;;2.44;100.00;99320.16;5398014;26;20704;-51
2024/04/18 02:23:24;;;;;;;7.97;4.67;;;;;;;2.50;100.00;99316.78;5404963;26;20236;-51
2024/04/18 02:25:50;;;;;;;8.03;5.53;;;;;;;2.49;100.00;99315.13;5383494;26;20240;-51
2024/04/18 02:28:15;;;;;;;10.17;5.87;;;;;;;2.60;100.00;99311.19;5361980;26;20236;-53
2024/04/18 02:30:40;;;;;;;10.10;5.60;;;;;;;2.67;100.00;99311.25;5394101;26;20282;-54
2024/04/18 02:33:05;;;;;;;9.30;4.93;;;;;;;2.63;100.00;99318.78;5381584;26;20244;-52
2024/04/18 02:35:31;;;;;;;11.50;5.90;;;;;;;2.47;100.00;99321.66;5391695;26;20239;-52
2024/04/18 02:37:56;;;;;;;10.83;5.77;;;;;;;2.41;100.00;99328.50;5382921;26;20232;-52
2024/04/18 02:40:21;;;;;;;8.53;5.60;;;;;;;2.51;100.00;99329.03;5390936;26;20720;-54
2024/04/18 02:42:47;;;;;;;9.07;5.63;;;;;;;2.50;100.00;99327.41;5348469;26;20240;-52
2024/04/18 02:45:12;;;;;;;8.57;5.80;;;;;;;2.41;100.00;99328.50;5381198;26;20244;-51
2024/04/18 02:47:38;;;;;;;11.30;6.27;;;;;;;2.45;100.00;99324.47;5374590;26;20277;-57
2024/04/18 02:50:03;;;;;;;10.47;6.20;;;;;;;2.47;100.00;99329.63;5378240;26;20265;-52
2024/04/18 02:52:29;;;;;;;9.07;5.50;;;;;;;2.42;100.00;99327.50;5409346;26;20968;-52
2024/04/18 02:54:54;;;;;;;8.87;5.60;;;;;;;2.44;100.00;99332.66;5407530;26;20265;-52
2024/04/18 02:57:19;;;;;;;7.97;5.23;;;;;;;2.54;100.00;99340.31;5358140;26;20299;-53
2024/04/18 02:59:44;;;;;;;10.00;5.90;;;;;;;2.52;100.00;99337.84;5399640;26;20277;-54
2024/04/18 03:02:10;;;;;;;12.80;6.10;;;;;;;2.58;100.00;99342.44;5409214;26;20232;-56
2024/04/18 03:04:35;;;;;;;7.57;5.27;;;;;;;2.61;100.00;99351.84;5384306;26;20305;-54
2024/04/18 03:07:00;;;;;;;8.60;6.03;;;;;;;2.49;100.00;99341.69;5400721;26;20232;-53
2024/04/18 03:09:26;;;;;;;10.00;6.23;;;;;;;2.47;100.00;99341.03;5382199;26;20237;-53
2024/04/18 03:11:51;;;;;;;9.10;5.70;;;;;;;2.40;100.00;99345.44;5362191;26;20284;-55
2024/04/18 03:14:16;;;;;;;6.63;4.80;;;;;;;2.42;100.00;99340.78;5388011;26;20235;-53
2024/04/18 03:16:42;;;;;;;8.33;5.03;;;;;;;2.40;100.00;99347.28;5386840;26;20244;-55
2024/04/18 03:19:11;;;;;;;8.93;4.93;;;;;;;2.40;100.00;99341.97;5363027;26;20333;-54
2024/04/18 03:21:37;;;;;;;9.33;5.13;;;;;;;2.45;100.00;99348.38;5396040;26;20256;-55
2024/04/18 03:24:14;;;;;;;7.20;4.77;;;;;;;2.52;100.00;99351.13;5407419;26;20336;-51
2024/04/18 03:26:39;;;;;;;6.57;5.23;;;;;;;2.63;100.00;99344.50;5398609;26;20228;-54
2024/04/18 03:29:04;;;;;;;8.03;4.50;;;;;;;2.60;100.00;99350.19;5407422;26;20274;-51
2024/04/18 03:31:30;;;;;;;7.07;4.67;;;;;;;2.60;100.00;99350.19;5399460;26;20393;-52
2024/04/18 03:33:55;;;;;;;5.67;4.00;;;;;;;2.69;100.00;99353.56;5370327;26;20714;-53
2024/04/18 03:36:20;;;;;;;7.30;4.70;;;;;;;2.64;100.00;99354.97;5413580;26;20316;-52
2024/04/18 03:38:46;;;;;;;7.10;4.53;;;;;;;2.66;100.00;99350.28;5413945;26;20807;-52
2024/04/18 03:41:11;;;;;;;9.43;5.53;;;;;;;2.69;100.00;99353.56;5401869;26;20242;-51
2024/04/18 03:43:40;;;;;;;9.43;5.63;;;;;;;2.74;100.00;99359.97;5395378;26;20238;-55
2024/04/18 03:46:06;;;;;;;8.57;5.10;;;;;;;2.78;100.00;99363.91;5378401;26;20235;-53
2024/04/18 03:48:31;;;;;;;9.67;6.10;;;;;;;2.79;100.00;99362.91;5364153;26;20315;-51
2024/04/18 03:50:56;;;;;;;8.03;5.23;;;;;;;2.86;100.00;99356.84;5394245;26;20232;-52
2024/04/18 03:53:22;;;;;;;11.37;6.00;;;;;;;2.85;100.00;99365.84;5354387;26;20293;-54
2024/04/18 03:55:47;;;;;;;9.30;5.83;;;;;;;2.83;100.00;99370.50;5398120;26;20295;-53
2024/04/18 03:58:12;;;;;;;10.23;5.40;;;;;;;2.79;100.00;99372.69;5367653;26;20641;-52
2024/04/18 04:00:38;;;;;;;9.67;5.67;;;;;;;2.67;100.00;99372.38;5392495;26;20774;-54
2024/04/18 04:03:05;;;;;;;8.53;5.07;;;;;;;2.71;100.00;99370.16;5402673;26;20232;-53
2024/04/18 04:05:31;;;;;;;8.87;4.97;;;;;;;2.70;100.00;99369.34;5389690;26;20351;-54
2024/04/18 04:07:56;;;;;;;12.40;5.93;;;;;;;2.71;100.00;99376.28;5386357;26;20237;-55
2024/04/18 04:10:21;;;;;;;10.43;6.30;;;;;;;2.79;100.00;99378.84;5347122;26;20275;-53
2024/04/18 04:12:46;;;;;;;9.03;5.07;;;;;;;2.76;100.00;99387.19;5394731;26;20228;-51
2024/04/18 04:15:12;;;;;;;9.27;5.07;;;;;;;2.74;100.00;99391.88;5387558;26;20352;-53
2024/04/18 04:17:37;;;;;;;8.77;5.33;;;;;;;2.94;100.00;99393.94;5367793;26;20228;-53
2024/04/18 04:20:03;;;;;;;9.53;5.50;;;;;;;3.08;100.00;99393.06;5393951;26;20273;-52
2024/04/18 04:22:28;;;;;;;8.57;5.53;;;;;;;3.11;100.00;99395.34;5403980;26;20572;-52
2024/04/18 04:24:53;;;;;;;7.57;5.37;;;;;;;3.13;100.00;99394.34;5398140;26;20239;-52
2024/04/18 04:27:19;;;;;;;8.43;5.27;;;;;;;3.07;100.00;99404.72;5385223;26;20279;-53
2024/04/18 04:29:44;;;;;;;8.23;5.63;;;;;;;3.08;100.00;99403.72;5400881;26;20626;-52
2024/04/18 04:32:23;;;;;;;6.77;4.67;;;;;;;3.19;100.00;99405.06;5393688;26;20369;-55
2024/04/18 04:34:49;;;;;;;11.67;6.27;;;;;;;3.30;100.00;99403.75;5406564;26;20285;-54
2024/04/18 04:37:16;;;;;;;9.90;5.47;;;;;;;3.36;100.00;99407.47;5386992;26;20240;-55
2024/04/18 04:39:41;;;;;;;7.33;5.23;;;;;;;3.36;100.00;99421.63;5372704;26;20322;-55
2024/04/18 04:42:06;;;;;;;8.37;5.20;;;;;;;3.41;100.00;99418.38;5399764;26;20320;-56
2024/04/18 04:44:32;;;;;;;7.87;4.53;;;;;;;3.50;100.00;99421.75;5386876;26;20240;-53
2024/04/18 04:46:57;;;;;;;7.17;4.67;;;;;;;3.55;100.00;99425.47;5395507;26;20287;-57
2024/04/18 04:49:22;;;;;;;10.70;5.77;;;;;;;3.57;100.00;99427.94;5395327;26;20248;-54
2024/04/18 04:51:47;;;;;;;9.63;5.30;;;;;;;3.64;100.00;99428.81;5388480;26;20598;-52
2024/04/18 04:54:13;;;;;;;6.87;4.60;;;;;;;3.63;100.00;99431.69;5370695;26;20239;-51
2024/04/18 04:56:38;;;;;;;7.53;4.80;;;;;;;3.68;100.00;99440.75;5406516;26;20244;-53
2024/04/18 04:59:03;;;;;;;5.13;3.97;;;;;;;3.48;100.00;99437.88;5350541;26;20824;-53
2024/04/18 05:01:29;;;;;;;8.10;4.70;;;;;;;3.28;100.00;99440.34;5409232;26;20232;-52
2024/04/18 05:03:54;;;;;;;6.70;4.70;;;;;;;3.23;100.00;99445.41;5404035;26;20235;-55
2024/04/18 05:06:20;;;;;;;6.00;4.33;;;;;;;3.41;100.00;99429.00;5404739;26;20243;-52
2024/04/18 05:08:45;;;;;;;8.27;5.10;;;;;;;3.47;100.00;99438.09;5368367;26;20241;-51
2024/04/18 05:11:10;;;;;;;7.07;4.47;;;;;;;3.46;100.00;99450.56;5394982;26;20236;-53
2024/04/18 05:13:36;;;;;;;7.70;4.63;;;;;;;3.52;100.00;99452.47;5401125;26;20236;-53
2024/04/18 05:16:01;;;;;;;6.83;5.00;;;;;;;3.61;100.00;99455.00;5394716;26;20271;-52
2024/04/18 05:18:26;;;;;;;5.90;4.57;;;;;;;3.66;100.00;99460.59;5409974;26;20235;-52
2024/04/18 05:20:51;;;;;;;7.80;5.33;;;;;;;3.59;100.00;99463.16;5395238;26;20340;-52
2024/04/18 05:23:17;;;;;;;8.33;5.20;;;;;;;3.50;100.00;99464.31;5360807;26;20240;-54
2024/04/18 05:25:42;;;;;;;6.73;4.80;;;;;;;3.68;100.00;99469.19;5389664;26;20307;-52
2024/04/18 05:28:13;;;;;;;8.77;5.20;;;;;;;3.75;100.00;99469.25;5376713;26;20317;-52
2024/04/18 05:33:23;;;;;;;6.30;4.70;;;;;;;3.98;100.00;99483.22;5388024;26;20332;-53
2024/04/18 05:35:48;;;;;;;5.63;4.43;;;;;;;4.04;100.00;99486.13;5388330;26;20252;-52
2024/04/18 05:38:13;;;;;;;7.63;4.60;;;;;;;4.06;100.00;99490.22;5400168;26;20662;-54
2024/04/18 05:40:39;;;;;;;11.87;5.27;;;;;;;4.20;100.00;99496.47;5397362;26;20286;-51
2024/04/18 05:43:04;;;;;;;6.97;5.30;;;;;;;4.27;100.00;99492.03;5400089;26;20228;-58
2024/04/18 05:45:29;;;;;;;6.80;4.83;;;;;;;4.35;100.00;99492.91;5386281;26;20240;-51
2024/04/18 05:47:55;;;;;;;6.67;3.97;;;;;;;4.32;100.00;99501.28;5400949;26;20333;-51
2024/04/18 05:50:20;;;;;;;7.57;4.20;;;;;;;4.28;100.00;99507.00;5398236;26;20235;-51
2024/04/18 05:52:46;;;;;;;6.73;4.17;;;;;;;4.38;100.00;99509.34;5368177;26;20282;-52
2024/04/18 05:55:11;;;;;;;7.47;4.43;;;;;;;4.49;100.00;99504.47;5400441;26;20243;-52
2024/04/18 05:57:36;;;;;;;7.07;4.73;;;;;;;4.42;100.00;99513.25;5320703;26;20269;-55
2024/04/18 06:00:02;;;;;;;8.03;4.53;;;;;;;4.53;100.00;99513.75;5349090;26;20271;-55
2024/04/18 06:02:29;;;;;;;7.07;4.50;;;;;;;4.59;100.00;99520.97;5387053;26;20241;-51
2024/04/18 06:04:54;;;;;;;8.60;5.23;;;;;;;4.72;100.00;99520.22;5397939;26;20236;-53
2024/04/18 06:07:19;;;;;;;7.37;4.20;;;;;;;5.06;100.00;99526.59;5340132;26;20815;-54
2024/04/18 06:09:45;;;;;;;7.67;5.00;;;;;;;4.92;100.00;99524.88;5398100;26;20622;-53
2024/04/18 06:12:10;;;;;;;9.90;4.83;;;;;;;5.19;100.00;99532.00;5379711;26;20290;-52
2024/04/18 06:14:35;;;;;;;14.33;5.70;;;;;;;5.49;100.00;99531.69;5401004;26;20243;-55
2024/04/18 06:17:00;;;;;;;9.13;4.80;;;;;;;5.52;100.00;99538.50;5370489;26;20244;-55
2024/04/18 06:19:26;;;;;;;7.53;4.17;;;;;;;5.46;100.00;99544.63;5391703;26;20275;-54
2024/04/18 06:21:52;;;;;;;6.80;4.57;;;;;;;5.74;100.00;99544.53;5407549;26;20275;-56
2024/04/18 06:24:17;;;;;;;6.57;4.20;;;;;;;5.90;100.00;99548.66;5366519;26;20235;-55
2024/04/18 06:26:42;;;;;;;5.80;3.90;;;;;;;6.16;100.00;99551.63;5356819;26;20236;-55
2024/04/18 06:29:08;;;;;;;4.37;3.27;;;;;;;6.21;100.00;99557.97;5400299;26;20236;-57
2024/04/18 06:31:33;;;;;;;5.70;3.97;;;;;;;6.22;100.00;99558.81;5370670;26;20271;-56
2024/04/18 06:33:58;;;;;;;4.37;3.23;;;;;;;6.15;100.00;99557.97;5355492;26;20236;-56
2024/04/18 06:36:24;;;;;;;5.40;3.20;;;;;;;6.24;100.00;99562.09;5382683;26;20248;-53
2024/04/18 06:38:49;;;;;;;4.17;3.03;;;;;;;6.23;100.00;99561.28;5400082;26;20711;-52
2024/04/18 06:41:14;;;;;;;9.73;4.10;;;;;;;6.06;100.00;99571.53;5393141;26;20236;-53
2024/04/18 06:43:40;;;;;;;5.13;3.90;;;;;;;6.05;100.00;99572.56;5394177;26;20278;-52
2024/04/18 06:46:05;;;;;;;2.70;2.50;;;;;;;6.02;100.00;99572.16;5392702;26;20261;-53
2024/04/18 06:48:30;;;;;;;2.87;2.60;;;;;;;6.05;100.00;99585.91;5361269;26;20239;-53
2024/04/18 06:50:55;;;;;;;6.30;3.50;;;;;;;5.93;100.00;99577.63;5399914;26;20244;-52
2024/04/18 06:53:21;;;;;;;4.47;3.07;;;;;;;5.84;100.00;99580.72;5392115;26;20233;-52
2024/04/18 06:55:46;;;;;;;3.10;2.70;;;;;;;5.83;100.00;99587.06;5397375;26;20232;-52
2024/04/18 06:58:11;;;;;;;3.57;3.07;;;;;;;5.87;100.00;99589.13;5379205;26;20282;-51
2024/04/18 07:00:38;;;;;;;3.23;2.27;;;;;;;5.59;100.00;99587.38;5400429;26;20232;-51
2024/04/18 07:03:08;;;;;;;2.97;2.50;;;;;;;5.49;100.00;99595.75;5401361;26;20282;-55
2024/04/18 07:05:33;;;;;;;2.60;2.20;;;;;;;5.71;100.00;99598.31;5395515;26;20288;-52
2024/04/18 07:07:59;;;;;;;1.90;1.73;;;;;;;5.81;100.00;99597.13;5390095;26;20273;-52
2024/04/18 07:10:24;;;;;;;2.33;2.13;;;;;;;6.14;100.00;99599.09;5391321;26;20236;-53
2024/04/18 07:12:49;;;;;;;2.47;2.27;;;;;;;6.14;100.00;99601.75;5399091;26;20248;-53
2024/04/18 07:15:15;;;;;;;2.93;2.17;;;;;;;6.45;100.00;99605.72;5396093;26;20248;-55
2024/04/18 07:17:42;;;;;;;1.87;1.60;;;;;;;6.83;100.00;99600.56;5387137;26;20716;-55
2024/04/18 07:20:09;;;;;;;1.97;1.77;;;;;;;7.00;97.64;99600.13;5392209;26;20843;-55
2024/04/18 07:22:36;;;;;;;3.60;2.03;;;;;;;7.47;97.39;99601.88;5354722;26;20818;-54
2024/04/18 07:25:02;;;;;;;3.10;1.63;;;;;;;7.57;91.92;99615.66;5390524;26;20301;-51
2024/04/18 07:27:27;;;;;;;3.93;1.87;;;;;;;7.42;93.57;99607.88;5368080;26;20235;-52
2024/04/18 07:29:53;;;;;;;2.60;1.53;;;;;;;7.39;93.85;99609.09;5382248;26;20275;-54
2024/04/18 07:32:18;;;;;;;2.03;1.80;;;;;;;7.16;94.12;99614.13;5404196;26;20243;-52
2024/04/18 07:34:43;;;;;;;2.03;1.87;;;;;;;7.02;95.57;99621.34;5370602;26;20287;-52
2024/04/18 07:37:09;;;;;;;2.53;1.90;;;;;;;6.94;95.50;99620.53;5391456;26;20257;-51
2024/04/18 07:39:34;;;;;;;2.27;2.07;;;;;;;6.97;98.78;99619.28;5382515;26;20291;-51
2024/04/18 07:42:01;;;;;;;1.73;1.63;;;;;;;6.77;96.69;99628.13;5387056;26;20283;-53
2024/04/18 07:44:26;;;;;;;2.00;1.80;;;;;;;6.86;96.10;99631.44;5395652;26;20660;-51
2024/04/18 07:46:52;;;;;;;1.97;1.87;;;;;;;7.30;96.00;99631.81;5389616;26;20232;-55
2024/04/18 07:49:17;;;;;;;2.30;2.10;;;;;;;7.37;93.26;99639.81;5384173;26;20236;-52
2024/04/18 07:51:42;;;;;;;2.37;2.10;;;;;;;7.48;95.26;99628.47;5408346;26;20227;-53
2024/04/18 07:54:08;;;;;;;2.67;2.47;;;;;;;7.83;91.21;99641.50;5400894;26;20289;-54
2024/04/18 07:56:33;;;;;;;2.97;1.73;;;;;;;8.01;89.88;99643.50;5357324;26;20278;-51
2024/04/18 07:58:59;;;;;;;2.17;1.90;;;;;;;8.16;90.34;99651.28;5391618;26;20291;-53
2024/04/18 08:01:24;;;;;;;2.10;1.90;;;;;;;8.41;88.64;99649.69;5371043;26;20239;-55
2024/04/18 08:03:49;;;;;;;2.23;1.70;;;;;;;8.22;88.32;99654.94;5384645;26;20339;-53
2024/04/18 08:06:14;;;;;;;2.37;2.07;;;;;;;8.21;90.40;99660.53;5368387;26;20243;-52
2024/04/18 08:08:40;;;;;;;1.77;1.57;;;;;;;8.01;86.34;99661.44;5396618;26;20727;-52
2024/04/18 08:11:08;;;;;;;2.23;1.53;;;;;;;8.01;88.92;99661.44;5386282;26;20257;-53
2024/04/18 08:13:38;;;;;;;1.70;1.43;;;;;;;8.55;86.90;99658.50;5399954;26;20247;-52
2024/04/18 08:16:04;;;;;;;2.10;1.83;;;;;;;8.90;83.79;99668.75;5386222;26;20724;-52
2024/04/18 08:18:30;;;;;;;2.70;1.90;;;;;;;9.02;85.63;99675.06;5393833;26;20236;-52
2024/04/18 08:20:56;;;;;;;2.63;2.03;;;;;;;9.21;81.95;99672.41;5406796;26;20357;-55
2024/04/18 08:23:22;;;;;;;1.67;1.57;;;;;;;8.46;83.59;99682.84;5391499;26;20732;-52
2024/04/18 08:25:48;;;;;;;1.23;1.23;;;;;;;8.15;83.65;99686.31;5399023;26;20244;-54
2024/04/18 08:28:14;;;;;;;1.40;1.30;;;;;;;8.31;84.99;99690.34;5404285;26;20281;-53
2024/04/18 08:30:39;;;;;;;1.70;1.60;;;;;;;8.20;85.08;99688.38;5401294;26;20243;-54
2024/04/18 08:33:05;;;;;;;2.67;1.60;;;;;;;8.01;84.80;99688.25;5385392;26;20278;-52
2024/04/18 08:35:30;;;;;;;1.17;1.17;;;;;;;8.46;82.58;99690.91;5408113;26;20638;-55
2024/04/18 08:37:55;;;;;;;1.60;1.37;;;;;;;9.92;77.46;99691.72;5376837;26;20337;-55
2024/04/18 08:40:21;;;;;;;1.53;1.10;;;;;;;11.95;70.59;99698.28;5367675;26;20596;-55
2024/04/18 08:42:46;;;;;;;1.50;1.33;;;;;;;14.89;59.82;99698.28;5397322;26;20248;-53
2024/04/18 08:45:12;;;;;;;1.67;1.13;;;;;;;16.79;51.71;99706.81;5368402;26;20256;-54
2024/04/18 08:47:40;;;;;;;1.27;1.10;;;;;;;17.15;47.56;99699.50;5399684;26;20235;-53
2024/04/18 08:50:07;;;;;;;1.23;1.13;;;;;;;15.87;49.50;99705.47;5395408;26;20240;-56
2024/04/18 08:52:36;;;;;;;1.20;1.20;;;;;;;15.29;49.82;99708.91;5395414;26;20282;-54
2024/04/18 08:55:01;;;;;;;1.10;1.10;;;;;;;15.06;50.16;99705.47;5389367;26;20587;-55
2024/04/18 08:57:29;;;;;;;1.30;1.20;;;;;;;13.29;55.58;99705.28;5396337;26;20275;-54
2024/04/18 08:59:59;;;;;;;1.40;1.27;;;;;;;13.45;56.58;99709.06;5384619;26;20273;-52
2024/04/18 09:02:25;;;;;;;1.67;1.40;;;;;;;13.08;55.74;99709.53;5388773;26;20649;-55
2024/04/18 09:04:51;;;;;;;1.13;1.03;;;;;;;13.79;54.56;99709.00;5386391;26;20239;-52
2024/04/18 09:07:16;;;;;;;1.30;1.13;;;;;;;14.19;53.47;99717.03;5369968;26;21023;-52
2024/04/18 09:09:42;;;;;;;1.10;1.10;;;;;;;14.28;52.03;99714.72;5389240;26;20656;-54
2024/04/18 09:12:07;;;;;;;1.27;1.20;;;;;;;13.57;53.63;99716.25;5360186;26;20269;-52
2024/04/18 09:14:32;;;;;;;1.23;1.20;;;;;;;13.01;54.13;99722.38;5412032;26;20247;-52
2024/04/18 09:16:58;;;;;;;1.23;1.13;;;;;;;12.65;54.81;99724.47;5396060;26;20240;-55
2024/04/18 09:19:24;;;;;;;1.30;1.20;;;;;;;12.34;56.84;99722.03;5364450;26;20287;-52
2024/04/18 09:21:49;;;;;;;2.97;1.27;;;;;;;12.04;57.69;99725.75;5394766;26;20241;-52
2024/04/18 09:24:14;;;;;;;2.73;1.13;;;;;;;12.25;57.63;99723.44;5371402;26;20236;-52
2024/04/18 09:26:40;;;;;;;1.20;1.10;;;;;;;12.09;58.05;99725.03;5400409;26;20232;-51
2024/04/18 09:29:05;;;;;;;1.27;1.20;;;;;;;12.23;57.74;99726.41;5404790;26;20251;-54
2024/04/18 09:31:32;;;;;;;1.17;1.07;;;;;;;12.63;55.99;99724.72;5392304;26;20248;-52
2024/04/18 09:33:57;;;;;;;1.20;1.10;;;;;;;12.86;55.19;99725.66;5395917;26;20735;-52
2024/04/18 09:36:23;;;;;;;1.30;1.20;;;;;;;12.72;53.56;99722.44;5397220;26;20282;-54
2024/04/18 09:38:49;;;;;;;1.30;1.13;;;;;;;14.24;52.42;99719.81;5352759;26;20720;-55
2024/04/18 09:41:15;;;;;;;1.00;1.00;;;;;;;14.91;48.95;99725.94;5415816;26;20298;-54
2024/04/18 09:43:57;;;;;;;1.17;1.07;;;;;;;14.69;48.27;99728.72;5409088;26;20286;-56
2024/04/18 09:46:23;;;;;;;1.00;1.00;;;;;;;14.32;50.35;99722.06;5385266;26;20651;-54
2024/04/18 09:48:49;;;;;;;1.20;1.10;;;;;;;13.69;51.30;99735.88;5385295;26;20236;-52
2024/04/18 09:51:16;;;;;;;0.90;0.90;;;;;;;12.68;56.16;99738.28;5402819;26;20282;-51
2024/04/18 09:53:43;;;;;;;1.60;1.27;;;;;;;12.05;59.49;99735.50;5385356;26;20228;-54
2024/04/18 09:56:08;;;;;;;1.00;1.00;;;;;;;11.34;61.91;99736.31;5392154;26;20328;-55
2024/04/18 09:58:35;;;;;;;1.13;1.00;;;;;;;11.10;63.28;99733.59;5398154;26;20240;-54
2024/04/18 10:01:02;;;;;;;1.03;0.90;;;;;;;10.77;64.00;99736.81;5363682;26;20236;-52
2024/04/18 10:03:28;;;;;;;1.20;1.10;;;;;;;10.55;68.31;99739.19;5397306;26;20858;-52
2024/04/18 10:05:55;;;;;;;1.80;1.20;;;;;;;10.04;72.59;99736.66;5396099;26;20637;-52
2024/04/18 10:08:27;;;;;;;1.20;1.20;;;;;;;9.78;75.54;99750.16;5394494;26;20640;-52
2024/04/18 10:10:53;;;;;;;1.30;1.13;;;;;;;9.28;77.05;99748.38;5396531;26;20278;-52
2024/04/18 10:13:22;;;;;;;1.50;1.40;;;;;;;9.14;79.75;99752.19;5353044;26;20237;-54
2024/04/18 10:15:48;;;;;;;1.50;1.40;;;;;;;9.09;78.49;99743.97;5397621;26;20235;-55
2024/04/18 10:18:17;;;;;;;0.90;0.90;;;;;;;9.12;80.18;99748.91;5393331;26;20583;-52
2024/04/18 10:20:44;;;;;;;1.50;1.40;;;;;;;9.13;77.75;99755.91;5394477;26;20648;-54
2024/04/18 10:23:17;;;;;;;1.33;1.23;;;;;;;9.30;75.39;99754.34;5384277;26;20236;-53
2024/04/18 10:25:44;;;;;;;1.10;1.00;;;;;;;9.74;77.86;99754.34;5384273;26;20295;-55
2024/04/18 10:28:20;;;;;;;1.20;1.20;;;;;;;9.84;71.61;99753.84;5411255;26;20282;-56
2024/04/18 10:30:45;;;;;;;1.00;1.00;;;;;;;9.89;72.97;99756.69;5367102;26;20269;-55
2024/04/18 10:33:10;;;;;;;1.20;1.10;;;;;;;9.96;72.64;99763.88;5394301;26;20229;-52
2024/04/18 10:35:36;;;;;;;1.40;1.30;;;;;;;9.95;77.10;99768.41;5394421;26;20728;-53
2024/04/18 10:38:02;;;;;;;2.93;0.93;;;;;;;9.89;74.48;99780.88;5358244;26;20231;-55
2024/04/18 10:40:28;;;;;;;1.60;1.20;;;;;;;9.14;79.37;99785.22;5402934;26;20279;-54
2024/04/18 10:43:07;;;;;;;2.13;1.47;;;;;;;7.96;78.05;99790.69;5386576;26;20596;-53
2024/04/18 10:45:33;;;;;;;1.60;1.50;;;;;;;7.62;80.25;99800.63;5412503;26;20714;-53
2024/04/18 10:47:59;;;;;;;1.87;1.47;;;;;;;7.41;84.14;99796.31;5375532;26;20302;-53
2024/04/18 10:50:24;;;;;;;1.60;1.50;;;;;;;7.45;86.63;99788.69;5404275;26;20277;-55
2024/04/18 10:52:49;;;;;;;1.63;1.53;;;;;;;7.28;87.93;99791.78;5395768;26;20244;-55
2024/04/18 10:55:14;;;;;;;1.90;1.80;;;;;;;7.48;89.59;99789.13;5392438;26;20278;-55
2024/04/18 10:57:40;;;;;;;2.07;1.70;;;;;;;7.82;87.88;99789.09;5396052;26;20236;-52
2024/04/18 11:00:06;;;;;;;2.20;2.00;;;;;;;8.08;84.41;99785.53;5380558;26;20239;-51
2024/04/18 11:02:31;;;;;;;4.10;1.77;;;;;;;8.39;80.56;99783.16;5414662;26;20285;-55
2024/04/18 11:04:57;;;;;;;2.30;2.10;;;;;;;8.89;80.07;99782.50;5393208;26;20232;-53
2024/04/18 11:07:22;;;;;;;3.77;2.23;;;;;;;9.05;79.48;99790.03;5379801;26;20236;-53
2024/04/18 11:09:47;;;;;;;2.00;1.80;;;;;;;9.38;74.59;99784.66;5382811;26;20232;-53
2024/04/18 11:12:14;;;;;;;2.17;1.97;;;;;;;10.04;70.66;99791.25;5413510;26;20592;-53
2024/04/18 11:14:39;;;;;;;2.00;1.63;;;;;;;10.56;67.32;99786.56;5413464;26;20252;-55
2024/04/18 11:17:06;;;;;;;1.93;1.27;;;;;;;11.21;66.88;99790.41;5382676;26;20232;-54
2024/04/18 11:19:32;;;;;;;1.80;1.70;;;;;;;10.91;66.13;99791.25;5368731;26;20246;-56
2024/04/18 11:22:01;;;;;;;1.70;1.60;;;;;;;11.47;63.17;99796.41;5407385;26;20314;-56
2024/04/18 11:24:27;;;;;;;1.70;1.60;;;;;;;11.61;62.02;99797.84;5380642;26;20613;-56
2024/04/18 11:26:52;;;;;;;1.80;1.70;;;;;;;11.24;63.11;99787.25;5381409;26;20345;-52
2024/04/18 11:29:17;;;;;;;1.73;1.63;;;;;;;10.97;64.38;99785.78;5375318;26;20590;-55
2024/04/18 11:31:43;;;;;;;1.70;1.60;;;;;;;10.37;67.76;99789.25;5366969;26;20248;-55